createdAt,value
2022-08-25T00:00:20.510Z,23.60
2022-08-25T00:02:56.064Z,23.50
2022-08-25T00:05:29.360Z,23.40
2022-08-25T00:07:59.156Z,23.40
2022-08-25T00:10:28.711Z,23.30
2022-08-25T00:12:56.846Z,23.20
2022-08-25T00:15:25.352Z,23.20
2022-08-25T00:17:56.282Z,23.20
2022-08-25T00:20:25.355Z,23.20
2022-08-25T00:22:53.549Z,23.20
2022-08-25T00:25:22.389Z,23.10
2022-08-25T00:27:52.342Z,23.10
2022-08-25T00:30:20.593Z,23.00
2022-08-25T00:32:55.143Z,22.80
2022-08-25T00:35:28.147Z,22.90
2022-08-25T00:37:56.783Z,22.80
2022-08-25T00:40:26.540Z,22.90
2022-08-25T00:42:56.876Z,23.00
2022-08-25T00:45:25.389Z,22.80
2022-08-25T00:47:59.940Z,22.70
2022-08-25T00:50:33.938Z,22.70
2022-08-25T00:53:05.646Z,22.70
2022-08-25T00:55:38.121Z,22.70
2022-08-25T00:58:14.197Z,22.60
2022-08-25T01:00:45.030Z,22.50
2022-08-25T01:03:14.961Z,22.50
2022-08-25T01:05:44.269Z,22.40
2022-08-25T01:08:12.847Z,22.40
2022-08-25T01:10:45.686Z,22.30
2022-08-25T01:13:23.787Z,22.40
2022-08-25T01:15:57.191Z,22.30
2022-08-25T01:18:28.605Z,22.30
2022-08-25T01:21:02.226Z,22.20
2022-08-25T01:23:30.287Z,22.10
2022-08-25T01:26:05.846Z,22.00
2022-08-25T01:28:33.960Z,22.00
2022-08-25T01:31:02.307Z,21.90
2022-08-25T01:33:30.381Z,21.80
2022-08-25T01:35:59.824Z,21.70
2022-08-25T01:38:29.626Z,21.60
2022-08-25T01:40:57.721Z,21.60
2022-08-25T01:43:32.660Z,21.50
2022-08-25T01:46:05.417Z,21.40
2022-08-25T01:48:35.361Z,21.50
2022-08-25T01:51:05.185Z,21.40
2022-08-25T01:53:34.217Z,21.40
2022-08-25T01:56:10.907Z,21.30
2022-08-25T01:58:41.516Z,21.40
2022-08-25T02:01:12.438Z,21.30
2022-08-25T02:03:42.505Z,21.20
2022-08-25T02:06:13.159Z,21.20
2022-08-25T02:08:45.223Z,21.30
2022-08-25T02:11:15.534Z,21.10
2022-08-25T02:13:43.895Z,21.10
2022-08-25T02:16:18.195Z,21.00
2022-08-25T02:18:48.895Z,21.00
2022-08-25T02:21:19.071Z,20.90
2022-08-25T02:23:50.130Z,20.80
2022-08-25T02:26:19.943Z,20.80
2022-08-25T02:28:48.375Z,20.90
2022-08-25T02:31:20.436Z,20.80
2022-08-25T02:33:48.672Z,20.70
2022-08-25T02:36:18.251Z,20.60
2022-08-25T02:38:48.627Z,20.50
2022-08-25T02:41:19.643Z,20.50
2022-08-25T02:43:49.132Z,20.60
2022-08-25T02:46:20.020Z,20.60
2022-08-25T02:48:49.264Z,20.80
2022-08-25T02:51:18.553Z,20.80
2022-08-25T02:53:48.432Z,20.80
2022-08-25T02:56:18.260Z,20.70
2022-08-25T02:58:47.029Z,20.80
2022-08-25T03:01:16.953Z,20.80
2022-08-25T03:03:46.971Z,20.80
2022-08-25T03:06:17.235Z,20.90
2022-08-25T03:08:47.111Z,20.70
2022-08-25T03:11:15.248Z,20.70
2022-08-25T03:13:43.304Z,20.70
2022-08-25T03:16:12.287Z,20.70
2022-08-25T03:18:42.232Z,20.80
2022-08-25T03:21:11.445Z,20.70
2022-08-25T03:23:41.046Z,20.80
2022-08-25T03:26:31.175Z,20.90
2022-08-25T03:28:59.952Z,21.00
2022-08-25T03:31:28.603Z,21.10
2022-08-25T03:33:56.633Z,21.10
2022-08-25T03:36:24.792Z,21.20
2022-08-25T03:38:53.535Z,21.20
2022-08-25T03:41:25.643Z,21.30
2022-08-25T03:43:57.191Z,21.30
2022-08-25T03:46:28.994Z,21.30
2022-08-25T03:48:59.329Z,21.40
2022-08-25T03:51:29.069Z,21.40
2022-08-25T03:53:57.776Z,21.40
2022-08-25T03:56:27.436Z,21.30
2022-08-25T03:58:58.306Z,21.30
2022-08-25T04:01:27.338Z,21.20
2022-08-25T04:03:57.775Z,21.20
2022-08-25T04:06:25.829Z,21.20
2022-08-25T04:08:55.498Z,21.40
2022-08-25T04:11:28.971Z,21.30
2022-08-25T04:14:17.399Z,21.30
2022-08-25T04:16:46.239Z,21.20
2022-08-25T04:19:14.731Z,21.20
2022-08-25T04:21:44.765Z,21.10
2022-08-25T04:24:14.111Z,20.90
2022-08-25T04:26:46.404Z,20.80
2022-08-25T04:29:19.236Z,20.80
2022-08-25T04:31:52.570Z,20.70
2022-08-25T04:34:30.420Z,20.70
2022-08-25T04:37:00.775Z,20.60
2022-08-25T04:39:28.830Z,20.40
2022-08-25T04:42:00.430Z,20.30
2022-08-25T04:44:32.144Z,20.30
2022-08-25T04:47:01.978Z,20.30
2022-08-25T04:49:33.085Z,20.30
2022-08-25T04:52:03.243Z,20.40
2022-08-25T04:54:37.093Z,20.40
2022-08-25T04:57:07.068Z,20.40
2022-08-25T04:59:35.138Z,20.50
2022-08-25T05:02:05.079Z,20.80
2022-08-25T05:04:35.034Z,20.80
2022-08-25T05:07:03.712Z,20.90
2022-08-25T05:09:33.093Z,20.90
2022-08-25T05:12:03.993Z,21.10
2022-08-25T05:14:33.928Z,21.20
2022-08-25T05:17:02.456Z,21.20
2022-08-25T05:19:30.613Z,21.20
2022-08-25T05:21:58.618Z,21.30
2022-08-25T05:24:29.594Z,21.40
2022-08-25T05:26:58.780Z,21.40
2022-08-25T05:29:34.694Z,21.40
2022-08-25T05:32:07.721Z,21.50
2022-08-25T05:34:37.197Z,21.60
2022-08-25T05:37:08.239Z,21.60
2022-08-25T05:39:38.467Z,21.70
2022-08-25T05:42:06.891Z,21.70
2022-08-25T05:44:35.061Z,21.80
2022-08-25T05:47:07.749Z,21.80
2022-08-25T05:49:36.602Z,21.80
2022-08-25T05:52:05.171Z,21.90
2022-08-25T05:54:35.280Z,22.00
2022-08-25T05:57:05.226Z,22.00
2022-08-25T05:59:35.113Z,22.00
2022-08-25T06:02:20.944Z,22.10
2022-08-25T06:04:50.448Z,22.10
2022-08-25T06:07:18.431Z,22.10
2022-08-25T06:09:49.023Z,22.20
2022-08-25T06:12:19.150Z,22.20
2022-08-25T06:14:48.346Z,22.30
2022-08-25T06:17:17.291Z,22.40
2022-08-25T06:19:45.512Z,22.40
2022-08-25T06:22:15.038Z,22.30
2022-08-25T06:24:43.096Z,22.40
2022-08-25T06:27:16.101Z,22.40
2022-08-25T06:29:46.119Z,22.60
2022-08-25T06:32:14.094Z,22.50
2022-08-25T06:34:42.037Z,22.60
2022-08-25T06:37:10.265Z,22.70
2022-08-25T06:39:39.657Z,22.60
2022-08-25T06:42:10.403Z,22.70
2022-08-25T06:44:38.435Z,22.70
2022-08-25T06:47:09.689Z,22.70
2022-08-25T06:49:40.718Z,22.80
2022-08-25T06:52:10.648Z,22.70
2022-08-25T06:54:40.798Z,22.80
2022-08-25T06:57:08.911Z,22.90
2022-08-25T06:59:37.962Z,23.00
2022-08-25T07:02:10.039Z,23.10
2022-08-25T07:04:38.219Z,23.00
2022-08-25T07:07:08.075Z,23.10
2022-08-25T07:09:39.050Z,23.10
2022-08-25T07:12:09.534Z,23.10
2022-08-25T07:14:37.873Z,23.20
2022-08-25T07:17:11.962Z,23.30
2022-08-25T07:19:41.027Z,23.30
2022-08-25T07:22:09.565Z,23.40
2022-08-25T07:24:37.727Z,23.30
2022-08-25T07:27:07.734Z,23.40
2022-08-25T07:29:42.229Z,23.50
2022-08-25T07:32:10.901Z,23.70
2022-08-25T07:34:56.624Z,23.70
2022-08-25T07:37:48.940Z,23.70
2022-08-25T07:40:15.898Z,23.70
2022-08-25T07:42:44.819Z,23.80
2022-08-25T07:45:20.495Z,23.60
2022-08-25T07:47:52.056Z,23.70
2022-08-25T07:50:20.297Z,23.80
2022-08-25T07:52:52.230Z,23.80
2022-08-25T07:55:23.441Z,23.80
2022-08-25T07:57:55.429Z,23.80
2022-08-25T08:00:27.707Z,24.10
2022-08-25T08:02:56.059Z,24.10
2022-08-25T08:05:24.968Z,24.20
2022-08-25T08:07:53.089Z,24.40
2022-08-25T08:10:53.809Z,24.40
2022-08-25T08:13:14.385Z,24.40
2022-08-25T08:15:48.293Z,24.30
2022-08-25T08:18:17.277Z,24.50
2022-08-25T08:20:47.936Z,24.60
2022-08-25T08:23:16.593Z,24.60
2022-08-25T08:25:44.935Z,24.60
2022-08-25T08:28:13.082Z,24.60
2022-08-25T08:30:53.133Z,24.70
2022-08-25T08:33:24.937Z,24.70
2022-08-25T08:36:01.095Z,24.80
2022-08-25T08:38:34.507Z,24.80
2022-08-25T08:41:33.857Z,24.90
2022-08-25T08:44:21.858Z,24.70
2022-08-25T08:46:59.651Z,25.00
2022-08-25T08:49:36.188Z,25.20
2022-08-25T08:52:05.452Z,25.10
2022-08-25T08:54:39.227Z,25.40
2022-08-25T08:57:13.735Z,25.30
2022-08-25T08:59:48.875Z,25.50
2022-08-25T09:02:49.741Z,25.60
2022-08-25T09:05:19.887Z,25.40
2022-08-25T09:07:55.022Z,25.40
2022-08-25T09:10:28.109Z,25.80
2022-08-25T09:13:05.775Z,25.70
2022-08-25T09:16:09.235Z,25.90
2022-08-25T09:18:51.029Z,25.90
2022-08-25T09:21:28.135Z,26.00
2022-08-25T09:24:29.588Z,26.00
2022-08-25T09:27:09.145Z,25.90
2022-08-25T09:29:49.780Z,26.00
2022-08-25T09:32:24.117Z,26.10
2022-08-25T09:34:55.378Z,26.40
2022-08-25T09:37:27.094Z,26.50
2022-08-25T09:39:57.808Z,26.40
2022-08-25T09:42:49.849Z,26.30
2022-08-25T09:45:31.328Z,26.10
2022-08-25T09:47:59.355Z,26.20
2022-08-25T09:50:35.014Z,26.20
2022-08-25T09:53:18.886Z,26.40
2022-08-25T09:56:00.208Z,26.40
2022-08-25T09:58:28.749Z,26.30
2022-08-25T10:01:15.780Z,26.50
2022-08-25T10:04:02.263Z,26.50
2022-08-25T10:06:43.696Z,26.60
2022-08-25T10:09:24.005Z,26.60
2022-08-25T10:11:57.718Z,26.60
2022-08-25T10:14:29.647Z,26.60
2022-08-25T10:17:15.277Z,26.80
2022-08-25T10:19:43.991Z,26.70
2022-08-25T10:22:21.433Z,26.70
2022-08-25T10:24:50.981Z,26.80
2022-08-25T10:27:29.132Z,26.60
2022-08-25T10:30:13.918Z,26.90
2022-08-25T10:33:07.834Z,26.70
2022-08-25T10:35:49.138Z,27.10
2022-08-25T10:38:36.123Z,26.90
2022-08-25T10:41:32.841Z,27.10
2022-08-25T10:44:25.844Z,27.10
2022-08-25T10:47:02.928Z,27.50
2022-08-25T10:49:39.349Z,27.50
2022-08-25T10:52:13.749Z,27.50
2022-08-25T10:54:49.233Z,27.50
2022-08-25T10:57:23.397Z,27.40
2022-08-25T11:00:06.552Z,28.00
2022-08-25T11:03:11.779Z,28.40
2022-08-25T11:05:44.627Z,28.60
2022-08-25T11:08:18.690Z,28.90
2022-08-25T11:10:50.737Z,28.90
2022-08-25T11:13:27.884Z,28.60
2022-08-25T11:16:19.091Z,28.60
2022-08-25T11:18:58.668Z,28.60
2022-08-25T11:21:37.353Z,29.00
2022-08-25T11:24:20.180Z,29.30
2022-08-25T11:26:57.968Z,29.50
2022-08-25T11:29:33.691Z,29.90
2022-08-25T11:32:02.385Z,29.90
2022-08-25T11:34:34.604Z,30.20
2022-08-25T11:37:11.097Z,30.50
2022-08-25T11:40:03.842Z,30.30
2022-08-25T11:42:45.599Z,30.40
2022-08-25T11:45:34.630Z,30.90
2022-08-25T11:48:18.395Z,30.90
2022-08-25T11:51:00.222Z,31.10
2022-08-25T11:53:30.899Z,31.00
2022-08-25T11:56:04.592Z,31.40
2022-08-25T11:58:52.777Z,30.90
2022-08-25T12:02:10.917Z,30.20
2022-08-25T12:04:44.788Z,29.60
2022-08-25T12:07:23.298Z,29.40
2022-08-25T12:10:14.985Z,29.40
2022-08-25T12:13:02.254Z,29.70
2022-08-25T12:15:51.267Z,30.20
2022-08-25T12:18:46.106Z,31.10
2022-08-25T12:21:17.955Z,31.30
2022-08-25T12:24:13.119Z,31.60
2022-08-25T12:26:55.679Z,31.60
2022-08-25T12:29:33.993Z,31.60
2022-08-25T12:32:33.244Z,31.80
2022-08-25T12:35:30.423Z,31.40
2022-08-25T12:38:07.021Z,30.90
2022-08-25T12:40:39.917Z,30.60
2022-08-25T12:43:12.263Z,30.60
2022-08-25T12:45:44.282Z,30.90
2022-08-25T12:49:05.362Z,31.30
2022-08-25T12:51:51.786Z,30.90
2022-08-25T12:54:26.360Z,31.60
2022-08-25T12:56:59.643Z,32.20
2022-08-25T12:59:36.109Z,31.60
2022-08-25T13:02:51.665Z,31.00
2022-08-25T13:05:48.138Z,31.40
2022-08-25T13:08:50.269Z,31.00
2022-08-25T13:11:26.227Z,30.70
2022-08-25T13:14:02.382Z,31.10
2022-08-25T13:16:31.562Z,31.30
2022-08-25T13:19:01.614Z,31.20
2022-08-25T13:21:33.796Z,30.60
2022-08-25T13:24:09.670Z,30.30
2022-08-25T13:26:48.290Z,30.30
2022-08-25T13:29:21.942Z,30.10
2022-08-25T13:31:56.606Z,30.20
2022-08-25T13:34:34.440Z,30.50
2022-08-25T13:37:27.095Z,30.80
2022-08-25T13:40:11.154Z,30.90
2022-08-25T13:42:42.550Z,31.40
2022-08-25T13:45:16.748Z,31.30
2022-08-25T13:47:46.238Z,31.90
2022-08-25T13:50:29.897Z,32.20
2022-08-25T13:53:00.939Z,32.70
2022-08-25T13:55:38.215Z,32.90
2022-08-25T13:58:24.272Z,32.20
2022-08-25T14:01:22.787Z,32.00
2022-08-25T14:04:01.267Z,32.00
2022-08-25T14:06:29.783Z,32.30
2022-08-25T14:09:16.563Z,32.00
2022-08-25T14:11:48.990Z,32.00
2022-08-25T14:14:34.875Z,31.40
2022-08-25T14:17:16.373Z,31.90
2022-08-25T14:19:55.230Z,32.20
2022-08-25T14:22:23.509Z,32.10
2022-08-25T14:24:54.549Z,32.10
2022-08-25T14:27:23.796Z,31.90
2022-08-25T14:29:53.431Z,31.10
2022-08-25T14:32:21.636Z,30.60
2022-08-25T14:34:50.377Z,30.50
2022-08-25T14:37:20.659Z,30.30
2022-08-25T14:39:54.897Z,30.30
2022-08-25T14:42:26.355Z,30.70
2022-08-25T14:44:58.513Z,30.70
2022-08-25T14:47:28.280Z,30.90
2022-08-25T14:49:56.375Z,30.90
2022-08-25T14:52:28.870Z,31.00
2022-08-25T14:54:58.166Z,31.50
2022-08-25T14:57:30.256Z,31.20
2022-08-25T15:00:00.727Z,31.20
2022-08-25T15:02:30.612Z,31.00
2022-08-25T15:05:03.313Z,30.70
2022-08-25T15:07:51.869Z,30.70
2022-08-25T15:10:21.673Z,30.90
2022-08-25T15:12:54.764Z,30.70
2022-08-25T15:15:26.446Z,30.60
2022-08-25T15:17:55.322Z,30.50
2022-08-25T15:20:27.713Z,30.10
2022-08-25T15:22:57.216Z,30.00
2022-08-25T15:25:25.986Z,30.50
2022-08-25T15:27:54.398Z,30.70
2022-08-25T15:30:38.250Z,30.90
2022-08-25T15:33:06.839Z,31.10
2022-08-25T15:35:39.107Z,31.20
2022-08-25T15:38:07.272Z,31.40
2022-08-25T15:40:39.735Z,31.20
2022-08-25T15:43:08.277Z,31.00
2022-08-25T15:45:38.447Z,31.20
2022-08-25T15:48:09.486Z,31.30
2022-08-25T15:50:39.974Z,31.10
2022-08-25T15:53:11.205Z,31.20
2022-08-25T15:55:42.236Z,31.20
2022-08-25T15:58:12.236Z,31.10
2022-08-25T16:00:56.474Z,30.80
2022-08-25T16:03:28.172Z,30.60
2022-08-25T16:05:56.672Z,30.50
2022-08-25T16:08:24.947Z,30.50
2022-08-25T16:10:56.207Z,30.50
2022-08-25T16:13:25.214Z,30.70
2022-08-25T16:15:58.520Z,30.40
2022-08-25T16:18:27.729Z,30.30
2022-08-25T16:20:56.232Z,30.70
2022-08-25T16:23:24.557Z,31.00
2022-08-25T16:25:54.426Z,31.00
2022-08-25T16:28:24.525Z,31.10
2022-08-25T16:30:54.296Z,31.10
2022-08-25T16:33:24.437Z,31.10
2022-08-25T16:35:53.582Z,31.10
2022-08-25T16:38:21.616Z,30.90
2022-08-25T16:40:49.704Z,31.10
2022-08-25T16:43:17.808Z,31.40
2022-08-25T16:45:48.900Z,31.60
2022-08-25T16:48:18.625Z,31.50
2022-08-25T16:50:47.823Z,31.50
2022-08-25T16:53:34.128Z,31.80
2022-08-25T16:56:03.967Z,31.90
2022-08-25T16:58:32.960Z,31.70
2022-08-25T17:01:05.982Z,31.50
2022-08-25T17:03:35.882Z,31.40
2022-08-25T17:06:04.277Z,31.30
2022-08-25T17:08:35.244Z,31.40
2022-08-25T17:11:09.697Z,31.40
2022-08-25T17:13:44.866Z,31.10
2022-08-25T17:16:15.157Z,30.90
2022-08-25T17:18:47.737Z,30.80
2022-08-25T17:21:24.549Z,30.80
2022-08-25T17:23:55.980Z,31.00
2022-08-25T17:26:27.961Z,31.20
2022-08-25T17:28:59.390Z,31.10
2022-08-25T17:31:30.019Z,31.20
2022-08-25T17:34:00.591Z,31.10
2022-08-25T17:36:28.967Z,30.30
2022-08-25T17:39:02.957Z,30.00
2022-08-25T17:41:31.307Z,29.90
2022-08-25T17:43:59.888Z,29.60
2022-08-25T17:46:29.348Z,29.50
2022-08-25T17:48:58.994Z,29.30
2022-08-25T17:51:29.651Z,29.20
2022-08-25T17:54:00.188Z,29.20
2022-08-25T17:56:30.460Z,29.00
2022-08-25T17:59:01.159Z,29.00
2022-08-25T18:01:33.157Z,28.90
2022-08-25T18:04:03.247Z,28.90
2022-08-25T18:06:32.666Z,28.60
2022-08-25T18:09:01.523Z,28.60
2022-08-25T18:11:33.547Z,28.40
2022-08-25T18:14:01.756Z,28.20
2022-08-25T18:16:30.105Z,28.00
2022-08-25T18:18:58.873Z,27.80
2022-08-25T18:21:30.402Z,27.80
2022-08-25T18:23:59.313Z,27.60
2022-08-25T18:26:28.015Z,27.60
2022-08-25T18:28:56.143Z,27.50
2022-08-25T18:31:26.301Z,27.40
2022-08-25T18:33:54.732Z,27.40
2022-08-25T18:36:22.780Z,27.20
2022-08-25T18:39:10.107Z,27.20
2022-08-25T18:41:40.895Z,27.20
2022-08-25T18:44:11.119Z,27.00
2022-08-25T18:46:42.322Z,26.90
2022-08-25T18:49:12.247Z,26.80
2022-08-25T18:51:45.017Z,26.60
2022-08-25T18:54:22.702Z,26.50
2022-08-25T18:56:51.985Z,26.50
2022-08-25T18:59:23.770Z,26.40
2022-08-25T19:01:53.901Z,26.30
2022-08-25T19:04:31.244Z,26.20
2022-08-25T19:06:59.862Z,26.10
2022-08-25T19:09:32.729Z,26.10
2022-08-25T19:12:02.612Z,26.10
2022-08-25T19:14:31.129Z,26.20
2022-08-25T19:16:59.529Z,26.30
2022-08-25T19:19:29.422Z,26.20
2022-08-25T19:21:58.199Z,26.30
2022-08-25T19:24:29.917Z,26.10
2022-08-25T19:27:02.200Z,26.00
2022-08-25T19:29:31.480Z,26.20
2022-08-25T19:32:02.000Z,26.30
2022-08-25T19:34:34.941Z,26.30
2022-08-25T19:37:05.155Z,26.20
2022-08-25T19:39:36.091Z,26.10
2022-08-25T19:42:08.285Z,26.00
2022-08-25T19:44:56.568Z,25.80
2022-08-25T19:47:25.965Z,25.80
2022-08-25T19:49:55.528Z,25.70
2022-08-25T19:52:24.966Z,25.60
2022-08-25T19:54:56.233Z,25.40
2022-08-25T19:57:28.520Z,25.40
2022-08-25T20:00:16.057Z,25.60
2022-08-25T20:02:45.036Z,25.50
2022-08-25T20:05:14.362Z,25.40
2022-08-25T20:07:43.523Z,25.30
2022-08-25T20:10:14.871Z,25.30
2022-08-25T20:12:45.503Z,25.30
2022-08-25T20:15:16.727Z,25.30
2022-08-25T20:17:45.222Z,25.30
2022-08-25T20:20:16.906Z,25.30
2022-08-25T20:22:45.044Z,25.30
2022-08-25T20:25:17.720Z,25.30
2022-08-25T20:27:49.789Z,25.30
2022-08-25T20:30:22.055Z,25.20
2022-08-25T20:32:51.140Z,25.20
2022-08-25T20:35:20.276Z,25.10
2022-08-25T20:37:55.541Z,25.10
2022-08-25T20:40:30.205Z,25.00
2022-08-25T20:43:03.107Z,24.80
2022-08-25T20:45:33.648Z,24.90
2022-08-25T20:48:02.077Z,24.80
2022-08-25T20:50:33.104Z,24.90
2022-08-25T20:53:01.852Z,24.80
2022-08-25T20:55:32.143Z,24.60
2022-08-25T20:58:08.663Z,24.60
2022-08-25T21:00:36.810Z,24.60
2022-08-25T21:03:05.034Z,24.70
2022-08-25T21:05:35.054Z,24.70
2022-08-25T21:08:03.518Z,24.60
2022-08-25T21:10:33.082Z,24.60
2022-08-25T21:13:02.100Z,24.60
2022-08-25T21:15:30.430Z,24.50
2022-08-25T21:17:58.508Z,24.60
2022-08-25T21:20:27.711Z,24.40
2022-08-25T21:22:55.745Z,24.30
2022-08-25T21:25:25.133Z,24.40
2022-08-25T21:27:54.468Z,24.30
2022-08-25T21:30:22.454Z,24.30
2022-08-25T21:32:53.483Z,24.20
2022-08-25T21:35:22.604Z,24.20
2022-08-25T21:37:53.393Z,23.90
2022-08-25T21:40:27.079Z,23.70
2022-08-25T21:42:57.182Z,23.60
2022-08-25T21:45:25.312Z,23.70
2022-08-25T21:47:53.301Z,23.70
2022-08-25T21:50:22.226Z,23.70
2022-08-25T21:52:54.474Z,23.70
2022-08-25T21:55:23.126Z,23.70
2022-08-25T21:57:51.381Z,23.70
2022-08-25T22:00:22.460Z,23.60
2022-08-25T22:02:50.785Z,23.50
2022-08-25T22:05:19.217Z,23.50
2022-08-25T22:07:48.212Z,23.60
2022-08-25T22:10:17.861Z,23.50
2022-08-25T22:12:52.032Z,23.40
2022-08-25T22:15:23.066Z,23.20
2022-08-25T22:17:51.956Z,23.20
2022-08-25T22:20:20.227Z,23.30
2022-08-25T22:22:50.564Z,23.30
2022-08-25T22:25:23.515Z,23.20
2022-08-25T22:27:56.663Z,23.20
2022-08-25T22:30:27.668Z,23.30
2022-08-25T22:32:58.654Z,23.10
2022-08-25T22:35:27.605Z,23.00
2022-08-25T22:37:55.595Z,23.00
2022-08-25T22:40:24.448Z,23.00
2022-08-25T22:42:53.297Z,23.00
2022-08-25T22:45:21.699Z,23.00
2022-08-25T22:47:53.140Z,23.20
2022-08-25T22:50:23.205Z,23.30
2022-08-25T22:52:51.219Z,23.30
2022-08-25T22:55:20.834Z,23.30
2022-08-25T22:57:54.795Z,23.30
2022-08-25T23:00:23.220Z,23.10
2022-08-25T23:02:54.758Z,23.10
2022-08-25T23:05:23.003Z,23.10
2022-08-25T23:07:52.616Z,23.00
2022-08-25T23:10:22.743Z,22.90
2022-08-25T23:12:50.877Z,22.90
2022-08-25T23:15:18.976Z,23.00
2022-08-25T23:17:46.992Z,22.90
2022-08-25T23:20:34.940Z,22.70
2022-08-25T23:23:02.858Z,22.60
2022-08-25T23:25:31.322Z,22.70
2022-08-25T23:27:59.356Z,22.70
2022-08-25T23:30:27.643Z,22.70
2022-08-25T23:32:58.644Z,22.60
2022-08-25T23:35:28.321Z,22.60
2022-08-25T23:37:57.712Z,22.60
2022-08-25T23:40:27.624Z,22.60
2022-08-25T23:42:55.743Z,22.70
2022-08-25T23:45:23.717Z,22.70
2022-08-25T23:47:53.879Z,22.70
2022-08-25T23:50:21.845Z,22.90
2022-08-25T23:52:51.848Z,23.10
2022-08-25T23:55:20.047Z,22.80
2022-08-25T23:57:51.559Z,22.80
